createdAt,value
2023-06-30T00:01:04.331Z,34.93
2023-06-30T00:03:46.734Z,35.61
2023-06-30T00:06:14.533Z,35.26
2023-06-30T00:08:42.562Z,35.14
2023-06-30T00:11:11.136Z,35.44
2023-06-30T00:13:39.087Z,35.27
2023-06-30T00:16:06.921Z,35.44
2023-06-30T00:18:34.932Z,35.42
2023-06-30T00:21:04.133Z,35.79
2023-06-30T00:23:32.242Z,35.90
2023-06-30T00:26:00.078Z,36.74
2023-06-30T00:28:28.243Z,36.62
2023-06-30T00:30:56.240Z,37.04
2023-06-30T00:33:27.602Z,36.64
2023-06-30T00:35:55.769Z,36.66
2023-06-30T00:38:23.838Z,36.78
2023-06-30T00:40:51.600Z,36.86
2023-06-30T00:43:19.418Z,36.91
2023-06-30T00:45:48.834Z,36.66
2023-06-30T00:48:18.713Z,36.63
2023-06-30T00:50:46.843Z,36.78
2023-06-30T00:53:14.998Z,36.35
2023-06-30T00:55:42.921Z,36.83
2023-06-30T00:58:10.648Z,36.68
2023-06-30T01:00:38.748Z,36.75
2023-06-30T01:03:18.771Z,36.84
2023-06-30T01:05:56.606Z,36.64
2023-06-30T01:08:38.720Z,36.16
2023-06-30T01:11:07.781Z,36.51
2023-06-30T01:13:35.752Z,36.16
2023-06-30T01:16:07.003Z,36.12
2023-06-30T01:18:37.425Z,35.98
2023-06-30T01:21:06.273Z,36.60
2023-06-30T01:23:39.318Z,36.69
2023-06-30T01:26:07.988Z,36.67
2023-06-30T01:28:39.261Z,36.55
2023-06-30T01:31:10.835Z,36.59
2023-06-30T01:33:42.457Z,36.66
2023-06-30T01:36:10.586Z,36.94
2023-06-30T01:38:38.374Z,36.47
2023-06-30T01:41:09.536Z,36.15
2023-06-30T01:43:38.173Z,35.95
2023-06-30T01:46:06.557Z,35.87
2023-06-30T01:48:34.780Z,36.62
2023-06-30T01:51:02.894Z,36.94
2023-06-30T01:53:30.723Z,36.28
2023-06-30T01:56:00.091Z,36.51
2023-06-30T01:58:28.039Z,35.97
2023-06-30T02:00:56.442Z,36.41
2023-06-30T02:03:24.224Z,36.20
2023-06-30T02:05:52.381Z,35.98
2023-06-30T02:08:21.834Z,36.26
2023-06-30T02:10:50.638Z,36.57
2023-06-30T02:13:18.374Z,36.74
2023-06-30T02:15:47.081Z,36.73
2023-06-30T02:18:15.101Z,37.16
2023-06-30T02:20:43.112Z,38.14
2023-06-30T02:23:10.762Z,36.90
2023-06-30T02:25:40.542Z,36.86
2023-06-30T02:28:08.196Z,36.55
2023-06-30T02:30:36.151Z,36.94
2023-06-30T02:33:05.155Z,36.70
2023-06-30T02:35:33.696Z,37.06
2023-06-30T02:38:01.451Z,36.92
2023-06-30T02:40:31.374Z,36.92
2023-06-30T02:43:00.432Z,36.74
2023-06-30T02:45:28.427Z,36.88
2023-06-30T02:47:56.139Z,36.44
2023-06-30T02:50:30.259Z,36.45
2023-06-30T02:53:00.687Z,36.73
2023-06-30T02:55:29.048Z,36.88
2023-06-30T02:57:57.410Z,36.98
2023-06-30T03:00:26.257Z,37.21
2023-06-30T03:02:54.745Z,37.18
2023-06-30T03:05:23.345Z,37.42
2023-06-30T03:07:51.085Z,37.52
2023-06-30T03:10:20.759Z,37.47
2023-06-30T03:12:48.488Z,37.37
2023-06-30T03:15:16.824Z,37.41
2023-06-30T03:17:45.871Z,38.01
2023-06-30T03:20:14.022Z,37.69
2023-06-30T03:22:41.862Z,37.55
2023-06-30T03:25:10.750Z,38.06
2023-06-30T04:22:06.877Z,37.81
2023-06-30T04:24:35.006Z,38.02
2023-06-30T04:27:03.312Z,38.23
2023-06-30T04:29:31.448Z,37.83
2023-06-30T04:31:59.292Z,38.14
2023-06-30T04:34:27.387Z,37.95
2023-06-30T04:36:55.342Z,38.26
2023-06-30T04:39:23.460Z,38.19
2023-06-30T04:41:51.272Z,38.12
2023-06-30T04:44:19.773Z,38.73
2023-06-30T04:46:47.546Z,38.55
2023-06-30T04:49:16.459Z,38.21
2023-06-30T04:51:44.182Z,38.91
2023-06-30T04:54:12.276Z,38.38
2023-06-30T04:56:39.910Z,38.48
2023-06-30T04:59:08.196Z,38.46
2023-06-30T05:01:35.883Z,38.20
2023-06-30T05:04:04.049Z,37.78
2023-06-30T05:06:31.818Z,38.27
2023-06-30T05:09:00.107Z,37.89
2023-06-30T05:11:27.778Z,37.74
2023-06-30T05:13:55.898Z,37.80
2023-06-30T05:16:23.763Z,37.41
2023-06-30T05:18:52.165Z,37.64
2023-06-30T05:21:19.997Z,37.38
2023-06-30T05:23:48.001Z,37.58
2023-06-30T05:26:15.732Z,37.36
2023-06-30T05:28:52.686Z,37.55
2023-06-30T05:31:28.033Z,37.67
2023-06-30T05:33:56.204Z,37.11
2023-06-30T05:36:24.157Z,36.94
2023-06-30T05:38:52.236Z,37.37
2023-06-30T05:41:20.035Z,37.27
2023-06-30T05:43:48.008Z,36.79
2023-06-30T05:46:15.788Z,37.06
2023-06-30T05:48:44.087Z,36.72
2023-06-30T05:51:11.844Z,36.78
2023-06-30T05:53:39.848Z,36.87
2023-06-30T05:56:07.584Z,37.20
2023-06-30T05:58:39.258Z,36.79
2023-06-30T06:01:07.058Z,36.58
2023-06-30T06:03:35.338Z,36.54
2023-06-30T06:06:03.285Z,36.56
2023-06-30T06:08:31.767Z,35.32
2023-06-30T06:10:59.497Z,34.50
2023-06-30T06:13:39.947Z,33.97
2023-06-30T06:16:08.463Z,34.17
2023-06-30T06:18:36.601Z,33.22
2023-06-30T06:21:07.356Z,33.77
2023-06-30T06:23:35.394Z,34.28
2023-06-30T06:26:03.663Z,33.71
2023-06-30T06:28:31.797Z,33.97
2023-06-30T06:30:59.700Z,33.00
2023-06-30T06:33:28.233Z,33.26
2023-06-30T06:35:56.065Z,33.11
2023-06-30T06:38:24.138Z,32.97
2023-06-30T06:40:51.867Z,32.52
2023-06-30T06:43:19.992Z,32.89
2023-06-30T06:45:48.027Z,32.59
2023-06-30T06:48:34.367Z,32.71
2023-06-30T06:51:03.350Z,32.23
2023-06-30T06:53:34.049Z,33.01
2023-06-30T06:56:02.140Z,33.50
2023-06-30T06:58:31.326Z,33.26
2023-06-30T07:00:59.270Z,32.73
2023-06-30T07:03:27.427Z,32.91
2023-06-30T07:05:56.673Z,32.60
2023-06-30T07:08:24.946Z,32.65
2023-06-30T07:10:52.940Z,32.30
2023-06-30T07:13:22.318Z,32.06
2023-06-30T07:15:50.549Z,32.39
2023-06-30T07:18:20.078Z,32.23
2023-06-30T07:20:48.778Z,32.85
2023-06-30T07:23:16.875Z,32.36
2023-06-30T07:25:48.299Z,32.87
2023-06-30T07:28:17.156Z,32.20
2023-06-30T07:30:44.980Z,33.30
2023-06-30T07:33:13.990Z,32.54
2023-06-30T07:35:42.117Z,32.12
2023-06-30T07:38:10.797Z,32.91
2023-06-30T07:40:51.170Z,32.48
2023-06-30T07:43:23.880Z,32.68
2023-06-30T07:45:52.044Z,32.89
2023-06-30T07:48:20.450Z,32.31
2023-06-30T07:50:59.647Z,32.55
2023-06-30T07:53:36.023Z,33.67
2023-06-30T07:56:03.830Z,33.05
2023-06-30T07:58:32.558Z,33.11
2023-06-30T08:01:00.263Z,33.59
2023-06-30T08:03:28.491Z,33.13
2023-06-30T08:05:57.919Z,32.18
2023-06-30T08:08:26.156Z,31.86
2023-06-30T08:10:53.742Z,31.42
2023-06-30T08:13:21.856Z,31.37
2023-06-30T08:15:50.131Z,30.12
2023-06-30T08:18:31.801Z,30.30
2023-06-30T08:21:03.063Z,30.62
2023-06-30T08:23:31.312Z,30.02
2023-06-30T08:26:01.050Z,28.84
2023-06-30T08:28:29.177Z,29.21
2023-06-30T08:30:56.938Z,28.39
2023-06-30T08:33:39.974Z,27.54
2023-06-30T08:36:08.586Z,27.69
2023-06-30T08:38:36.595Z,27.10
2023-06-30T08:41:04.569Z,28.85
2023-06-30T08:43:33.240Z,29.71
2023-06-30T08:46:03.529Z,30.48
2023-06-30T08:48:33.210Z,30.18
2023-06-30T08:51:01.296Z,30.55
2023-06-30T08:53:30.499Z,29.77
2023-06-30T08:55:59.700Z,30.13
2023-06-30T08:58:28.725Z,29.67
2023-06-30T09:00:57.218Z,29.39
2023-06-30T09:03:25.566Z,29.56
2023-06-30T09:05:55.018Z,29.79
2023-06-30T09:08:25.203Z,29.85
2023-06-30T09:10:55.098Z,29.51
2023-06-30T09:13:24.758Z,29.45
2023-06-30T09:15:55.889Z,29.85
2023-06-30T09:18:24.054Z,30.10
2023-06-30T09:20:52.230Z,30.57
2023-06-30T09:23:20.278Z,29.38
2023-06-30T09:25:48.462Z,29.50
2023-06-30T09:28:17.086Z,29.58
2023-06-30T09:30:46.779Z,29.44
2023-06-30T09:33:18.441Z,29.38
2023-06-30T09:35:48.181Z,29.81
2023-06-30T09:38:20.658Z,29.24
2023-06-30T09:40:50.110Z,29.47
2023-06-30T09:43:22.178Z,30.28
2023-06-30T09:45:57.326Z,30.46
2023-06-30T09:48:29.545Z,29.69
2023-06-30T09:50:57.614Z,29.90
2023-06-30T09:53:25.583Z,29.60
2023-06-30T09:55:53.624Z,30.65
2023-06-30T09:58:21.974Z,30.64
2023-06-30T10:00:51.804Z,31.32
2023-06-30T10:03:20.192Z,31.01
2023-06-30T10:05:51.127Z,30.95
2023-06-30T10:08:21.134Z,30.42
2023-06-30T10:10:48.985Z,31.55
2023-06-30T10:13:19.279Z,31.63
2023-06-30T10:15:47.427Z,31.08
2023-06-30T10:18:18.024Z,30.78
2023-06-30T10:20:50.014Z,31.20
2023-06-30T10:23:22.220Z,30.06
2023-06-30T10:25:51.850Z,30.39
2023-06-30T10:28:21.111Z,30.84
2023-06-30T10:30:54.678Z,30.19
2023-06-30T10:33:23.052Z,30.79
2023-06-30T10:35:51.139Z,30.58
2023-06-30T10:38:19.485Z,31.17
2023-06-30T10:40:47.441Z,31.59
2023-06-30T10:43:15.475Z,31.63
2023-06-30T10:46:18.540Z,31.97
2023-06-30T10:48:46.621Z,33.22
2023-06-30T10:51:14.332Z,32.48
2023-06-30T10:53:46.119Z,33.86
2023-06-30T10:56:14.022Z,34.71
2023-06-30T10:58:43.398Z,36.89
2023-06-30T11:01:11.200Z,41.19
2023-06-30T11:03:59.704Z,41.32
2023-06-30T11:06:27.902Z,43.82
2023-06-30T11:09:02.683Z,42.25
2023-06-30T11:11:31.034Z,44.52
2023-06-30T11:14:06.319Z,45.73
2023-06-30T11:16:54.354Z,45.23
2023-06-30T11:19:25.605Z,48.70
2023-06-30T11:22:12.088Z,48.98
2023-06-30T11:24:40.970Z,51.11
2023-06-30T11:27:10.894Z,50.44
2023-06-30T11:29:40.219Z,51.66
2023-06-30T11:32:08.477Z,51.95
2023-06-30T11:34:37.126Z,52.65
2023-06-30T11:37:07.812Z,52.90
2023-06-30T11:39:36.412Z,52.70
2023-06-30T11:42:04.217Z,52.49
2023-06-30T11:44:36.832Z,51.25
2023-06-30T11:47:04.917Z,51.39
2023-06-30T11:49:39.572Z,51.69
2023-06-30T11:52:07.909Z,50.02
2023-06-30T11:54:37.165Z,48.52
2023-06-30T11:57:05.319Z,48.32
2023-06-30T11:59:33.560Z,47.83
2023-06-30T12:02:01.835Z,46.62
2023-06-30T12:04:34.768Z,46.95
2023-06-30T12:07:04.635Z,46.02
2023-06-30T12:09:35.927Z,45.03
2023-06-30T12:12:03.861Z,44.27
2023-06-30T12:14:32.211Z,44.48
2023-06-30T12:16:59.949Z,46.01
2023-06-30T12:19:29.406Z,45.20
2023-06-30T12:21:58.266Z,45.12
2023-06-30T12:24:31.076Z,44.01
2023-06-30T12:27:02.320Z,43.16
2023-06-30T12:29:33.075Z,42.41
2023-06-30T12:32:01.749Z,42.19
2023-06-30T12:34:34.164Z,43.65
2023-06-30T12:37:02.565Z,42.90
2023-06-30T12:39:30.754Z,41.75
2023-06-30T12:41:58.487Z,42.10
2023-06-30T12:44:26.638Z,42.40
2023-06-30T12:47:01.088Z,42.37
2023-06-30T12:49:32.031Z,42.28
2023-06-30T12:52:01.808Z,43.51
2023-06-30T12:54:31.976Z,42.01
2023-06-30T12:56:59.740Z,41.84
2023-06-30T12:59:27.890Z,42.61
2023-06-30T13:01:55.802Z,42.71
2023-06-30T13:04:26.103Z,42.75
2023-06-30T13:06:56.292Z,42.28
2023-06-30T13:09:24.490Z,41.48
2023-06-30T13:11:52.180Z,42.89
2023-06-30T13:14:20.257Z,43.55
2023-06-30T13:16:47.994Z,44.33
2023-06-30T13:19:16.108Z,44.63
2023-06-30T13:21:44.010Z,45.58
2023-06-30T13:24:13.366Z,47.08
2023-06-30T13:26:41.199Z,47.76
2023-06-30T13:29:11.438Z,50.71
2023-06-30T13:31:39.372Z,52.85
2023-06-30T13:34:07.699Z,54.36
2023-06-30T13:36:36.640Z,54.25
2023-06-30T13:39:04.745Z,57.30
2023-06-30T13:41:32.597Z,56.72
2023-06-30T13:44:00.757Z,55.92
2023-06-30T13:46:28.637Z,57.01
2023-06-30T13:48:56.877Z,55.35
2023-06-30T13:51:24.524Z,55.88
2023-06-30T13:53:52.951Z,54.83
2023-06-30T13:56:20.613Z,52.47
2023-06-30T13:58:49.257Z,52.07
2023-06-30T14:01:17.122Z,53.17
2023-06-30T14:03:49.805Z,55.33
2023-06-30T14:06:19.748Z,53.38
2023-06-30T14:08:48.188Z,55.00
2023-06-30T14:11:16.415Z,52.27
2023-06-30T14:13:47.505Z,52.65
2023-06-30T14:16:15.583Z,52.09
2023-06-30T14:18:44.119Z,52.63
2023-06-30T14:21:11.848Z,51.71
2023-06-30T14:23:39.880Z,52.22
2023-06-30T14:26:07.637Z,50.39
2023-06-30T14:28:35.717Z,54.28
2023-06-30T14:31:03.629Z,52.60
2023-06-30T14:33:32.255Z,50.42
2023-06-30T14:36:00.143Z,50.93
2023-06-30T14:38:28.177Z,48.90
2023-06-30T14:40:56.025Z,50.34
2023-06-30T14:43:25.455Z,51.42
2023-06-30T14:45:53.342Z,49.53
2023-06-30T14:48:22.285Z,51.23
2023-06-30T14:50:50.002Z,54.52
2023-06-30T14:53:18.133Z,54.10
2023-06-30T14:55:46.113Z,53.12
2023-06-30T14:58:14.344Z,52.47
2023-06-30T15:00:42.307Z,53.06
2023-06-30T15:03:11.127Z,52.49
2023-06-30T15:05:38.962Z,51.32
2023-06-30T15:08:08.165Z,52.29
2023-06-30T15:10:36.174Z,52.91
2023-06-30T15:13:04.568Z,52.53
2023-06-30T15:15:32.375Z,51.98
2023-06-30T15:18:00.921Z,51.88
2023-06-30T15:20:28.913Z,52.08
2023-06-30T15:22:57.036Z,52.31
2023-06-30T15:25:26.252Z,52.52
2023-06-30T15:27:54.786Z,53.36
2023-06-30T15:30:22.747Z,53.54
2023-06-30T15:32:51.423Z,55.69
2023-06-30T15:35:19.338Z,53.19
2023-06-30T15:37:47.469Z,54.29
2023-06-30T15:40:15.217Z,54.68
2023-06-30T15:42:44.351Z,56.89
2023-06-30T15:45:13.097Z,58.92
2023-06-30T15:47:41.447Z,61.30
2023-06-30T15:50:09.242Z,60.30
2023-06-30T15:52:38.902Z,58.52
2023-06-30T15:55:14.879Z,59.02
2023-06-30T15:57:43.652Z,58.31
2023-06-30T16:00:11.781Z,57.93
2023-06-30T16:02:43.304Z,58.69
2023-06-30T16:05:11.857Z,59.18
2023-06-30T16:07:40.123Z,59.01
2023-06-30T16:10:07.924Z,59.19
2023-06-30T16:12:36.054Z,59.90
2023-06-30T16:15:05.521Z,59.68
2023-06-30T16:17:33.646Z,60.51
2023-06-30T16:20:01.484Z,60.78
2023-06-30T16:22:29.731Z,62.10
2023-06-30T16:24:57.758Z,60.06
2023-06-30T16:27:26.347Z,59.41
2023-06-30T16:29:54.139Z,60.83
2023-06-30T16:32:22.211Z,73.26
2023-06-30T16:34:50.067Z,77.87
2023-06-30T16:37:18.258Z,84.10
2023-06-30T16:39:45.996Z,89.31
2023-06-30T16:42:13.949Z,90.86
2023-06-30T16:44:41.676Z,91.70
2023-06-30T16:47:10.224Z,94.95
2023-06-30T16:49:37.962Z,85.94
2023-06-30T16:52:06.356Z,80.04
2023-06-30T16:54:34.127Z,77.24
2023-06-30T16:57:02.093Z,74.93
2023-06-30T16:59:29.824Z,74.56
2023-06-30T17:01:57.857Z,73.73
2023-06-30T17:04:25.626Z,74.67
2023-06-30T17:06:53.864Z,73.19
2023-06-30T17:09:21.526Z,73.92
2023-06-30T17:11:50.479Z,76.04
2023-06-30T17:14:18.266Z,76.03
2023-06-30T17:16:46.293Z,77.90
2023-06-30T17:19:14.227Z,76.93
2023-06-30T17:21:42.337Z,77.23
2023-06-30T17:24:10.113Z,78.54
2023-06-30T17:26:38.451Z,79.91
2023-06-30T17:29:06.086Z,79.73
2023-06-30T17:31:34.609Z,80.56
2023-06-30T17:34:04.944Z,81.29
2023-06-30T17:36:33.081Z,81.73
2023-06-30T17:39:00.895Z,79.61
2023-06-30T17:41:28.916Z,79.45
2023-06-30T17:43:56.634Z,79.75
2023-06-30T17:46:24.678Z,79.68
2023-06-30T17:48:56.155Z,78.71
2023-06-30T17:51:24.319Z,79.28
2023-06-30T17:53:52.012Z,78.12
2023-06-30T17:56:20.418Z,79.17
2023-06-30T17:58:48.142Z,79.30
2023-06-30T18:01:16.378Z,80.05
2023-06-30T18:03:44.080Z,80.50
2023-06-30T18:06:12.585Z,79.87
2023-06-30T18:08:40.396Z,82.33
2023-06-30T18:11:09.880Z,81.62
2023-06-30T18:13:38.399Z,82.80
2023-06-30T18:16:06.713Z,81.64
2023-06-30T18:18:34.470Z,80.49
2023-06-30T18:21:02.484Z,81.77
2023-06-30T18:23:30.205Z,82.00
2023-06-30T18:25:58.238Z,81.42
2023-06-30T18:28:25.950Z,80.21
2023-06-30T18:30:53.983Z,80.07
2023-06-30T18:33:21.712Z,79.33
2023-06-30T18:35:49.717Z,79.88
2023-06-30T18:38:17.391Z,80.13
2023-06-30T18:40:45.764Z,80.68
2023-06-30T18:43:13.484Z,81.94
2023-06-30T18:45:41.702Z,80.48
2023-06-30T18:48:09.444Z,80.60
2023-06-30T18:50:37.568Z,80.35
2023-06-30T18:53:05.226Z,81.53
2023-06-30T18:55:33.238Z,80.37
2023-06-30T18:58:00.914Z,79.75
2023-06-30T19:00:29.032Z,79.63
2023-06-30T19:02:56.866Z,78.54
2023-06-30T19:05:25.486Z,80.25
2023-06-30T19:07:53.377Z,81.57
2023-06-30T19:10:21.441Z,81.14
2023-06-30T19:12:49.168Z,81.74
2023-06-30T19:15:17.168Z,80.11
2023-06-30T19:17:46.169Z,79.68
2023-06-30T19:20:14.187Z,80.09
2023-06-30T19:22:41.903Z,78.04
2023-06-30T19:25:10.001Z,77.90
2023-06-30T19:27:37.686Z,77.45
2023-06-30T19:30:06.017Z,77.49
2023-06-30T19:32:33.865Z,77.80
2023-06-30T19:35:01.978Z,77.58
2023-06-30T19:37:29.692Z,76.74
2023-06-30T19:39:57.690Z,76.78
2023-06-30T19:42:27.527Z,75.60
2023-06-30T19:44:56.159Z,76.13
2023-06-30T19:47:23.895Z,76.49
2023-06-30T19:49:52.032Z,77.47
2023-06-30T19:52:21.902Z,78.45
2023-06-30T19:54:51.327Z,77.93
2023-06-30T19:57:20.370Z,77.93
2023-06-30T19:59:48.435Z,80.51
2023-06-30T20:02:16.301Z,79.72
2023-06-30T20:04:44.569Z,80.44
2023-06-30T20:07:12.712Z,81.54
2023-06-30T20:09:40.703Z,81.27
2023-06-30T20:12:08.663Z,82.25
2023-06-30T20:14:36.752Z,82.77
2023-06-30T20:17:04.739Z,83.07
2023-06-30T20:19:32.851Z,83.37
2023-06-30T20:22:00.589Z,82.59
2023-06-30T20:24:29.028Z,83.42
2023-06-30T20:26:56.868Z,84.82
2023-06-30T20:29:24.982Z,83.64
2023-06-30T20:31:52.715Z,84.93
2023-06-30T20:34:21.080Z,86.33
2023-06-30T20:36:48.846Z,87.66
2023-06-30T20:39:17.090Z,87.41
2023-06-30T20:41:44.800Z,87.47
2023-06-30T20:44:14.990Z,88.24
2023-06-30T20:46:43.518Z,87.74
2023-06-30T20:49:11.869Z,87.36
2023-06-30T20:51:40.443Z,88.17
2023-06-30T20:54:08.576Z,87.01
2023-06-30T20:56:36.303Z,87.18
2023-06-30T20:59:04.271Z,88.32
2023-06-30T21:01:32.029Z,88.95
2023-06-30T21:04:00.235Z,88.59
2023-06-30T21:06:28.882Z,88.09
2023-06-30T21:08:57.026Z,86.76
2023-06-30T21:11:25.975Z,85.37
2023-06-30T21:13:54.230Z,86.37
2023-06-30T21:16:21.934Z,87.64
2023-06-30T21:18:49.934Z,86.80
2023-06-30T21:21:17.611Z,87.67
2023-06-30T21:23:46.844Z,87.87
2023-06-30T21:26:14.604Z,86.90
2023-06-30T21:28:42.747Z,86.89
2023-06-30T21:31:10.487Z,87.70
2023-06-30T21:33:38.563Z,88.72
2023-06-30T21:36:06.324Z,88.33
2023-06-30T21:38:34.353Z,89.24
2023-06-30T21:41:03.392Z,87.77
2023-06-30T21:43:31.467Z,89.54
2023-06-30T21:46:01.646Z,89.18
2023-06-30T21:48:29.792Z,90.34
2023-06-30T21:50:57.529Z,92.86
2023-06-30T21:53:25.890Z,90.70
2023-06-30T21:55:53.594Z,89.66
2023-06-30T21:58:27.330Z,90.93
2023-06-30T22:00:55.885Z,91.38
2023-06-30T22:03:24.471Z,91.01
2023-06-30T22:05:52.444Z,90.83
2023-06-30T22:08:20.546Z,92.06
2023-06-30T22:10:48.449Z,92.08
2023-06-30T22:13:16.672Z,91.57
2023-06-30T22:15:44.375Z,92.97
2023-06-30T22:18:12.464Z,93.53
2023-06-30T22:20:40.409Z,91.35
2023-06-30T22:23:08.456Z,92.01
2023-06-30T22:25:36.160Z,90.96
2023-06-30T22:28:04.224Z,93.07
2023-06-30T22:30:32.718Z,94.28
2023-06-30T22:33:00.855Z,93.82
2023-06-30T22:35:28.708Z,95.18
2023-06-30T22:37:56.840Z,96.04
2023-06-30T22:40:24.590Z,95.34
2023-06-30T22:42:52.589Z,96.28
2023-06-30T22:45:20.250Z,97.51
2023-06-30T22:47:48.435Z,98.39
2023-06-30T22:50:16.291Z,97.05
2023-06-30T22:52:44.322Z,96.00
2023-06-30T22:55:12.191Z,93.16
2023-06-30T22:57:40.311Z,92.97
2023-06-30T23:00:08.524Z,92.20
2023-06-30T23:02:37.309Z,94.05
2023-06-30T23:05:05.425Z,94.91
2023-06-30T23:07:33.532Z,94.91
2023-06-30T23:10:01.255Z,95.96
2023-06-30T23:12:29.241Z,95.31
2023-06-30T23:14:56.912Z,94.48
2023-06-30T23:17:26.840Z,95.90
2023-06-30T23:19:54.643Z,94.89
2023-06-30T23:22:27.359Z,94.56
2023-06-30T23:24:55.142Z,94.27
2023-06-30T23:27:28.789Z,92.90
2023-06-30T23:29:58.081Z,93.94
2023-06-30T23:32:26.187Z,94.28
2023-06-30T23:34:54.205Z,93.72
2023-06-30T23:37:22.236Z,92.99
2023-06-30T23:39:51.766Z,93.99
2023-06-30T23:42:19.695Z,94.46
2023-06-30T23:44:47.370Z,94.79
2023-06-30T23:47:16.788Z,93.78
2023-06-30T23:49:46.096Z,93.39
2023-06-30T23:52:14.181Z,93.58
2023-06-30T23:54:45.222Z,94.14
2023-06-30T23:57:13.467Z,93.79
2023-06-30T23:59:41.219Z,91.55
